createdAt,value
2022-10-18T00:00:49.628Z,2.78
2022-10-18T00:03:32.806Z,2.88
2022-10-18T00:06:15.760Z,2.70
2022-10-18T00:08:58.614Z,2.40
2022-10-18T00:11:41.879Z,2.42
2022-10-18T00:14:26.368Z,2.13
2022-10-18T00:17:09.249Z,2.50
2022-10-18T00:19:52.203Z,2.63
2022-10-18T00:22:35.720Z,2.70
2022-10-18T00:25:19.259Z,2.60
2022-10-18T00:28:02.144Z,2.75
2022-10-18T00:30:46.441Z,2.33
2022-10-18T00:33:29.305Z,2.42
2022-10-18T00:36:12.924Z,2.78
2022-10-18T00:38:56.006Z,2.97
2022-10-18T00:41:39.567Z,3.22
2022-10-18T00:44:59.814Z,2.85
2022-10-18T00:47:46.756Z,3.22
2022-10-18T00:50:33.579Z,2.92
2022-10-18T00:53:19.695Z,3.45
2022-10-18T00:56:02.707Z,3.08
2022-10-18T00:58:46.586Z,2.88
2022-10-18T01:01:29.513Z,3.33
2022-10-18T01:04:14.757Z,3.70
2022-10-18T01:07:02.828Z,3.65
2022-10-18T01:09:54.589Z,3.78
2022-10-18T01:12:50.167Z,4.15
2022-10-18T01:15:38.189Z,3.97
2022-10-18T01:18:28.668Z,3.50
2022-10-18T01:21:21.354Z,3.78
2022-10-18T01:24:35.046Z,3.08
2022-10-18T01:27:36.627Z,2.97
2022-10-18T01:30:48.284Z,3.67
2022-10-18T01:33:38.922Z,3.88
2022-10-18T01:36:24.404Z,3.97
2022-10-18T01:39:11.031Z,3.78
2022-10-18T01:41:56.280Z,3.92
2022-10-18T01:44:42.290Z,3.92
2022-10-18T01:47:28.354Z,2.88
2022-10-18T01:50:11.571Z,3.33
2022-10-18T01:52:54.400Z,3.22
2022-10-18T01:55:44.212Z,3.30
2022-10-18T01:58:35.879Z,3.63
2022-10-18T02:01:24.567Z,3.80
2022-10-18T02:04:20.316Z,3.90
2022-10-18T02:07:10.618Z,3.30
2022-10-18T02:10:02.352Z,3.47
2022-10-18T02:12:47.727Z,4.18
2022-10-18T02:15:34.841Z,3.90
2022-10-18T02:18:21.644Z,3.75
2022-10-18T02:21:09.239Z,3.83
2022-10-18T02:23:53.501Z,3.65
2022-10-18T02:26:36.855Z,3.85
2022-10-18T02:29:19.800Z,3.50
2022-10-18T02:32:07.732Z,3.20
2022-10-18T02:34:57.826Z,3.05
2022-10-18T02:37:44.189Z,3.00
2022-10-18T02:40:27.647Z,3.08
2022-10-18T02:43:10.492Z,3.10
2022-10-18T02:45:53.526Z,3.55
2022-10-18T02:48:36.362Z,3.08
2022-10-18T02:51:19.241Z,3.25
2022-10-18T02:54:03.517Z,3.42
2022-10-18T02:56:46.376Z,3.22
2022-10-18T02:59:29.217Z,3.88
2022-10-18T03:02:12.059Z,3.83
2022-10-18T03:04:55.032Z,3.85
2022-10-18T03:07:37.858Z,3.42
2022-10-18T03:10:22.044Z,3.40
2022-10-18T03:13:04.910Z,3.60
2022-10-18T03:15:48.055Z,3.55
2022-10-18T03:18:30.985Z,3.42
2022-10-18T03:21:14.047Z,3.28
2022-10-18T03:23:58.656Z,3.35
2022-10-18T03:26:42.827Z,3.22
2022-10-18T03:29:25.670Z,2.80
2022-10-18T03:32:08.510Z,3.20
2022-10-18T03:34:51.343Z,2.67
2022-10-18T03:37:34.265Z,2.22
2022-10-18T03:40:17.340Z,2.40
2022-10-18T03:43:01.583Z,2.45
2022-10-18T03:45:44.545Z,2.83
2022-10-18T03:48:27.414Z,2.20
2022-10-18T03:51:10.254Z,2.30
2022-10-18T03:53:53.082Z,2.45
2022-10-18T03:56:36.011Z,4.45
2022-10-18T03:59:20.348Z,3.70
2022-10-18T04:02:03.200Z,2.83
2022-10-18T04:04:46.140Z,2.83
2022-10-18T04:07:29.020Z,2.95
2022-10-18T04:10:11.901Z,3.17
2022-10-18T04:12:55.212Z,2.75
2022-10-18T04:15:39.492Z,2.65
2022-10-18T04:18:22.326Z,2.35
2022-10-18T04:21:05.464Z,2.65
2022-10-18T04:23:48.572Z,2.75
2022-10-18T04:26:31.433Z,2.75
2022-10-18T04:29:14.233Z,2.40
2022-10-18T04:31:58.441Z,2.50
2022-10-18T04:37:29.215Z,1.90
2022-10-18T04:40:13.219Z,1.70
2022-10-18T04:42:56.798Z,1.83
2022-10-18T04:45:39.602Z,1.95
2022-10-18T04:48:23.775Z,2.08
2022-10-18T04:51:06.960Z,1.98
2022-10-18T04:53:49.777Z,1.70
2022-10-18T04:56:32.771Z,2.10
2022-10-18T04:59:15.616Z,2.33
2022-10-18T05:01:58.504Z,2.30
2022-10-18T05:04:42.768Z,2.58
2022-10-18T05:07:25.618Z,2.38
2022-10-18T05:10:09.391Z,2.88
2022-10-18T05:12:52.279Z,2.67
2022-10-18T05:15:35.097Z,1.98
2022-10-18T05:18:18.017Z,2.17
2022-10-18T05:21:02.233Z,2.65
2022-10-18T05:23:45.084Z,2.85
2022-10-18T05:26:28.107Z,3.75
2022-10-18T05:29:11.044Z,3.42
2022-10-18T05:31:53.895Z,3.90
2022-10-18T05:34:36.729Z,3.42
2022-10-18T05:37:26.014Z,3.70
2022-10-18T05:40:12.059Z,3.58
2022-10-18T05:42:54.951Z,3.70
2022-10-18T05:45:37.786Z,3.22
2022-10-18T05:48:20.634Z,3.40
2022-10-18T05:51:03.611Z,2.22
2022-10-18T05:53:47.789Z,2.20
2022-10-18T05:56:30.730Z,1.80
2022-10-18T05:59:13.740Z,1.75
2022-10-18T06:01:56.556Z,1.52
2022-10-18T06:04:39.382Z,1.65
2022-10-18T06:07:22.230Z,1.65
2022-10-18T06:10:07.531Z,2.17
2022-10-18T06:12:50.411Z,1.98
2022-10-18T06:15:33.249Z,2.10
2022-10-18T06:18:16.105Z,2.05
2022-10-18T06:21:00.003Z,1.95
2022-10-18T06:23:42.889Z,1.97
2022-10-18T06:26:28.517Z,1.88
2022-10-18T06:29:11.588Z,2.65
2022-10-18T06:31:54.473Z,2.15
2022-10-18T06:34:37.387Z,1.90
2022-10-18T06:37:20.287Z,1.85
2022-10-18T06:40:03.115Z,1.70
2022-10-18T06:42:59.917Z,1.63
2022-10-18T06:45:48.867Z,1.45
2022-10-18T06:48:32.535Z,1.40
2022-10-18T06:51:16.204Z,1.30
2022-10-18T06:54:13.422Z,1.40
2022-10-18T06:57:02.544Z,1.38
2022-10-18T06:59:46.773Z,1.35
2022-10-18T07:02:29.792Z,1.73
2022-10-18T07:05:12.869Z,1.38
2022-10-18T07:07:56.489Z,1.75
2022-10-18T07:10:39.530Z,1.55
2022-10-18T07:13:38.333Z,1.98
2022-10-18T07:16:22.629Z,2.20
2022-10-18T07:19:05.494Z,2.30
2022-10-18T07:21:48.333Z,2.55
2022-10-18T07:24:31.187Z,2.78
2022-10-18T07:27:14.075Z,3.35
2022-10-18T07:29:56.856Z,3.25
2022-10-18T07:32:41.063Z,2.97
2022-10-18T07:35:23.865Z,3.10
2022-10-18T07:38:06.760Z,3.17
2022-10-18T07:40:49.618Z,3.13
2022-10-18T07:43:32.449Z,3.08
2022-10-18T07:46:16.466Z,3.53
2022-10-18T07:49:00.710Z,3.73
2022-10-18T07:51:43.526Z,5.60
2022-10-18T07:54:26.357Z,5.85
2022-10-18T07:57:09.202Z,5.35
2022-10-18T07:59:56.412Z,5.50
2022-10-18T08:02:40.105Z,5.15
2022-10-18T08:05:24.339Z,5.00
2022-10-18T08:08:08.162Z,4.80
2022-10-18T08:10:51.572Z,5.73
2022-10-18T08:13:34.742Z,5.22
2022-10-18T08:16:21.395Z,4.43
2022-10-18T08:19:10.002Z,5.15
2022-10-18T08:21:54.378Z,5.57
2022-10-18T08:24:37.458Z,6.95
2022-10-18T08:27:20.301Z,6.30
2022-10-18T08:30:03.112Z,7.95
2022-10-18T08:32:46.082Z,6.85
2022-10-18T08:35:29.087Z,6.95
2022-10-18T08:38:17.976Z,7.90
2022-10-18T08:41:15.672Z,7.35
2022-10-18T08:44:07.503Z,8.27
2022-10-18T08:46:52.985Z,8.32
2022-10-18T08:49:45.615Z,8.45
2022-10-18T08:52:36.554Z,8.88
2022-10-18T08:55:26.028Z,8.57
2022-10-18T08:58:18.174Z,9.48
2022-10-18T09:01:15.606Z,8.55
2022-10-18T09:04:23.725Z,8.90
2022-10-18T09:07:23.501Z,7.78
2022-10-18T09:10:20.502Z,7.07
2022-10-18T09:13:22.473Z,8.75
2022-10-18T09:16:07.088Z,8.63
2022-10-18T09:19:00.926Z,7.72
2022-10-18T09:21:52.314Z,8.70
2022-10-18T09:24:41.292Z,9.70
2022-10-18T09:27:34.326Z,9.02
2022-10-18T09:30:35.597Z,8.98
2022-10-18T09:33:29.899Z,9.38
2022-10-18T09:36:18.737Z,8.13
2022-10-18T09:39:05.650Z,8.88
2022-10-18T09:41:53.242Z,7.72
2022-10-18T09:44:40.710Z,8.68
2022-10-18T09:47:28.642Z,8.07
2022-10-18T09:50:24.158Z,8.18
2022-10-18T09:53:14.208Z,9.27
2022-10-18T09:56:02.236Z,8.02
2022-10-18T09:58:47.139Z,8.95
2022-10-18T10:04:15.470Z,6.82
2022-10-18T10:07:01.450Z,7.88
2022-10-18T10:09:47.321Z,8.38
2022-10-18T10:12:32.684Z,9.02
2022-10-18T10:15:22.800Z,8.50
2022-10-18T10:18:18.744Z,8.00
2022-10-18T10:21:06.376Z,8.95
2022-10-18T10:23:54.904Z,8.20
2022-10-18T10:26:38.916Z,8.50
2022-10-18T10:29:49.867Z,7.50
2022-10-18T10:32:45.955Z,8.80
2022-10-18T10:35:53.591Z,8.60
2022-10-18T10:38:38.225Z,7.32
2022-10-18T10:41:23.486Z,7.72
2022-10-18T10:44:16.442Z,7.38
2022-10-18T10:47:00.373Z,8.27
2022-10-18T10:49:44.861Z,7.47
2022-10-18T10:52:29.740Z,6.70
2022-10-18T10:55:34.465Z,8.48
2022-10-18T10:58:19.348Z,8.32
2022-10-18T11:01:19.727Z,8.23
2022-10-18T11:04:04.870Z,7.25
2022-10-18T11:06:56.450Z,6.75
2022-10-18T11:09:49.251Z,8.43
2022-10-18T11:12:37.637Z,7.18
2022-10-18T11:15:26.652Z,6.38
2022-10-18T11:18:17.299Z,6.57
2022-10-18T11:21:08.033Z,7.72
2022-10-18T11:23:51.081Z,6.88
2022-10-18T11:26:43.746Z,7.28
2022-10-18T11:32:34.984Z,6.10
2022-10-18T11:35:34.887Z,7.38
2022-10-18T11:38:31.778Z,6.88
2022-10-18T11:41:35.613Z,6.75
2022-10-18T11:44:28.537Z,6.30
2022-10-18T11:47:21.724Z,6.47
2022-10-18T11:50:13.779Z,6.65
2022-10-18T11:53:08.291Z,7.20
2022-10-18T11:56:02.000Z,7.10
2022-10-18T11:58:56.907Z,6.10
2022-10-18T12:01:45.049Z,6.53
2022-10-18T12:04:38.487Z,5.90
2022-10-18T12:07:29.006Z,5.63
2022-10-18T12:10:26.241Z,5.63
2022-10-18T12:13:26.623Z,5.20
2022-10-18T12:16:11.238Z,5.93
2022-10-18T12:18:56.986Z,5.78
2022-10-18T12:21:42.303Z,5.38
2022-10-18T12:24:28.724Z,6.22
2022-10-18T12:27:15.903Z,5.88
2022-10-18T12:30:03.565Z,5.57
2022-10-18T12:33:03.494Z,5.95
2022-10-18T12:36:06.817Z,5.88
2022-10-18T12:38:55.652Z,5.80
2022-10-18T12:41:38.685Z,5.20
2022-10-18T12:44:25.442Z,5.53
2022-10-18T12:47:08.390Z,5.30
2022-10-18T12:49:58.801Z,5.95
2022-10-18T12:52:42.100Z,6.93
2022-10-18T12:55:31.756Z,5.57
2022-10-18T12:58:27.144Z,6.07
2022-10-18T13:01:10.031Z,6.30
2022-10-18T13:03:56.210Z,6.05
2022-10-18T13:07:11.695Z,5.35
2022-10-18T13:10:38.167Z,6.15
2022-10-18T13:13:46.882Z,5.95
2022-10-18T13:16:43.941Z,6.32
2022-10-18T13:19:35.197Z,6.47
2022-10-18T13:22:32.338Z,6.30
2022-10-18T13:25:22.173Z,5.82
2022-10-18T13:28:22.507Z,6.60
2022-10-18T13:31:19.903Z,5.50
2022-10-18T13:34:25.024Z,5.15
2022-10-18T13:37:24.029Z,5.85
2022-10-18T13:40:23.985Z,6.13
2022-10-18T13:43:40.334Z,6.40
2022-10-18T13:46:26.390Z,5.72
2022-10-18T13:49:32.775Z,4.85
2022-10-18T13:52:25.232Z,5.57
2022-10-18T13:55:34.776Z,5.55
2022-10-18T13:58:26.826Z,5.45
2022-10-18T14:01:23.880Z,6.63
2022-10-18T14:04:40.822Z,5.78
2022-10-18T14:07:27.984Z,5.93
2022-10-18T14:10:18.648Z,6.80
2022-10-18T14:13:03.920Z,5.13
2022-10-18T14:15:50.643Z,6.38
2022-10-18T14:18:37.503Z,5.78
2022-10-18T14:21:31.135Z,5.28
2022-10-18T14:24:21.134Z,5.07
2022-10-18T14:27:20.972Z,5.47
2022-10-18T14:30:14.766Z,6.10
2022-10-18T14:32:59.541Z,4.95
2022-10-18T14:38:26.657Z,4.80
2022-10-18T14:41:16.508Z,4.97
2022-10-18T14:44:18.531Z,5.28
2022-10-18T14:47:03.724Z,4.28
2022-10-18T14:49:47.514Z,4.95
2022-10-18T14:52:35.639Z,5.30
2022-10-18T14:55:24.457Z,6.22
2022-10-18T14:58:15.162Z,6.15
2022-10-18T15:00:59.283Z,5.55
2022-10-18T15:03:42.252Z,6.68
2022-10-18T15:06:25.238Z,7.18
2022-10-18T15:09:08.183Z,5.70
2022-10-18T15:11:54.805Z,6.90
2022-10-18T15:14:38.725Z,6.22
2022-10-18T15:17:25.799Z,5.60
2022-10-18T15:20:22.048Z,5.95
2022-10-18T15:23:23.191Z,5.97
2022-10-18T15:26:09.023Z,6.97
2022-10-18T15:28:56.719Z,6.28
2022-10-18T15:31:42.950Z,6.80
2022-10-18T15:34:27.724Z,5.60
2022-10-18T15:40:34.577Z,5.35
2022-10-18T15:43:37.808Z,3.85
2022-10-18T15:46:33.341Z,4.47
2022-10-18T15:49:50.946Z,4.63
2022-10-18T15:52:39.222Z,4.72
2022-10-18T15:55:53.625Z,4.85
2022-10-18T15:58:42.790Z,4.25
2022-10-18T16:01:33.870Z,4.00
2022-10-18T16:04:21.138Z,4.00
2022-10-18T16:07:04.027Z,3.58
2022-10-18T16:09:47.003Z,3.35
2022-10-18T16:12:29.824Z,4.10
2022-10-18T16:15:13.528Z,3.75
2022-10-18T16:17:58.162Z,3.85
2022-10-18T16:20:41.052Z,4.07
2022-10-18T16:23:25.988Z,3.95
2022-10-18T16:26:10.240Z,4.38
2022-10-18T16:28:54.423Z,3.78
2022-10-18T16:31:37.403Z,4.57
2022-10-18T16:34:21.713Z,3.95
2022-10-18T16:37:04.570Z,3.92
2022-10-18T16:39:47.407Z,3.67
2022-10-18T16:42:30.518Z,2.92
2022-10-18T16:45:13.578Z,2.63
2022-10-18T16:47:56.407Z,3.20
2022-10-18T16:50:40.619Z,2.25
2022-10-18T16:53:25.094Z,3.88
2022-10-18T16:56:14.512Z,6.50
2022-10-18T16:58:57.871Z,8.10
2022-10-18T17:01:40.772Z,7.20
2022-10-18T17:04:23.941Z,9.50
2022-10-18T17:07:10.140Z,5.55
2022-10-18T17:09:52.969Z,14.00
2022-10-18T17:12:35.920Z,19.80
2022-10-18T17:15:19.692Z,9.55
2022-10-18T17:18:03.919Z,6.22
2022-10-18T17:20:46.889Z,5.65
2022-10-18T17:23:31.843Z,9.55
2022-10-18T17:26:28.447Z,6.03
2022-10-18T17:29:12.891Z,3.25
2022-10-18T17:31:55.786Z,5.03
2022-10-18T17:34:38.730Z,10.65
2022-10-18T17:37:21.648Z,5.38
2022-10-18T17:40:07.108Z,3.83
2022-10-18T17:42:50.014Z,2.85
2022-10-18T17:45:32.947Z,3.08
2022-10-18T17:48:15.881Z,3.00
2022-10-18T17:50:58.790Z,2.90
2022-10-18T17:53:41.638Z,2.28
2022-10-18T17:56:30.992Z,2.13
2022-10-18T17:59:14.030Z,2.95
2022-10-18T18:01:56.845Z,2.72
2022-10-18T18:04:39.818Z,3.22
2022-10-18T18:07:22.596Z,2.88
2022-10-18T18:10:06.023Z,3.10
2022-10-18T18:12:50.218Z,2.58
2022-10-18T18:15:33.079Z,1.92
2022-10-18T18:18:15.947Z,2.15
2022-10-18T18:20:58.764Z,1.88
2022-10-18T18:23:41.734Z,2.00
2022-10-18T18:26:25.381Z,1.75
2022-10-18T18:29:09.619Z,2.00
2022-10-18T18:31:52.771Z,1.90
2022-10-18T18:34:36.604Z,2.00
2022-10-18T18:37:19.470Z,1.73
2022-10-18T18:40:02.297Z,1.88
2022-10-18T18:42:56.759Z,1.83
2022-10-18T18:45:52.967Z,1.80
2022-10-18T18:48:37.286Z,2.45
2022-10-18T18:51:21.769Z,3.03
2022-10-18T18:54:05.401Z,2.70
2022-10-18T18:56:48.259Z,2.20
2022-10-18T18:59:31.056Z,1.73
2022-10-18T19:02:15.263Z,1.98
2022-10-18T19:04:58.180Z,1.70
2022-10-18T19:07:41.069Z,1.88
2022-10-18T19:10:23.893Z,1.70
2022-10-18T19:13:06.744Z,1.88
2022-10-18T19:15:49.572Z,1.88
2022-10-18T19:18:33.783Z,1.77
2022-10-18T19:21:16.622Z,1.73
2022-10-18T19:23:59.632Z,1.30
2022-10-18T19:26:44.894Z,1.60
2022-10-18T19:29:29.126Z,1.40
2022-10-18T19:32:13.330Z,1.48
2022-10-18T19:34:57.559Z,1.20
2022-10-18T19:37:40.707Z,1.15
2022-10-18T19:40:23.572Z,1.40
2022-10-18T19:43:06.421Z,1.25
2022-10-18T19:45:49.776Z,1.58
2022-10-18T19:48:32.695Z,1.55
2022-10-18T19:51:20.312Z,1.40
2022-10-18T19:54:06.906Z,1.27
2022-10-18T19:56:49.999Z,1.27
2022-10-18T19:59:32.939Z,1.52
2022-10-18T20:02:16.044Z,1.15
2022-10-18T20:04:59.083Z,1.60
2022-10-18T20:07:45.247Z,1.27
2022-10-18T20:10:28.125Z,1.40
2022-10-18T20:13:10.946Z,1.30
2022-10-18T20:15:54.943Z,1.23
2022-10-18T20:18:38.528Z,1.40
2022-10-18T20:21:21.337Z,1.45
2022-10-18T20:24:06.638Z,1.50
2022-10-18T20:26:49.522Z,1.13
2022-10-18T20:29:33.350Z,1.15
2022-10-18T20:32:16.411Z,1.23
2022-10-18T20:34:59.278Z,1.38
2022-10-18T20:37:42.120Z,1.30
2022-10-18T20:40:26.417Z,1.17
2022-10-18T20:43:09.262Z,1.20
2022-10-18T20:45:57.324Z,1.10
2022-10-18T20:48:40.121Z,1.10
2022-10-18T20:51:23.856Z,1.48
2022-10-18T20:54:08.110Z,1.30
2022-10-18T20:56:52.324Z,1.40
2022-10-18T20:59:35.815Z,2.38
2022-10-18T21:02:18.676Z,2.80
2022-10-18T21:05:01.649Z,3.80
2022-10-18T21:07:44.464Z,3.10
2022-10-18T21:10:27.381Z,3.05
2022-10-18T21:13:11.635Z,2.40
2022-10-18T21:15:55.608Z,2.08
2022-10-18T21:18:40.498Z,2.00
2022-10-18T21:21:25.289Z,2.78
2022-10-18T21:26:51.628Z,2.25
2022-10-18T21:29:36.278Z,2.75
2022-10-18T21:32:19.554Z,2.10
2022-10-18T21:35:03.089Z,2.35
2022-10-18T21:37:46.015Z,2.90
2022-10-18T21:40:28.805Z,2.55
2022-10-18T21:43:11.829Z,1.90
2022-10-18T21:46:00.128Z,1.90
2022-10-18T21:48:45.217Z,1.80
2022-10-18T21:51:29.097Z,1.58
2022-10-18T21:54:14.538Z,1.30
2022-10-18T21:56:57.447Z,1.25
2022-10-18T21:59:40.239Z,1.27
2022-10-18T22:02:24.451Z,1.00
2022-10-18T22:05:09.797Z,1.45
2022-10-18T22:07:54.362Z,1.10
2022-10-18T22:10:37.230Z,1.30
2022-10-18T22:13:20.426Z,1.20
2022-10-18T22:16:03.907Z,2.00
2022-10-18T22:18:49.437Z,1.45
2022-10-18T22:21:33.126Z,1.70
2022-10-18T22:24:15.989Z,1.65
2022-10-18T22:26:58.843Z,1.60
2022-10-18T22:29:41.730Z,1.02
2022-10-18T22:32:24.890Z,1.10
2022-10-18T22:35:09.408Z,1.02
2022-10-18T22:37:54.696Z,0.80
2022-10-18T22:40:37.544Z,1.00
2022-10-18T22:43:20.378Z,0.90
2022-10-18T22:46:03.823Z,0.80
2022-10-18T22:48:46.760Z,0.88
2022-10-18T22:51:31.109Z,0.70
2022-10-18T22:54:14.019Z,0.80
2022-10-18T22:56:56.853Z,0.80
2022-10-18T22:59:39.655Z,0.80
2022-10-18T23:02:22.576Z,0.70
2022-10-18T23:05:06.028Z,0.80
2022-10-18T23:07:50.721Z,0.80
2022-10-18T23:10:33.580Z,0.80
2022-10-18T23:13:16.500Z,0.80
2022-10-18T23:16:04.623Z,0.68
2022-10-18T23:18:50.956Z,0.60
2022-10-18T23:21:35.319Z,0.75
2022-10-18T23:24:19.498Z,0.90
2022-10-18T23:27:02.326Z,1.00
2022-10-18T23:29:45.188Z,0.80
2022-10-18T23:32:28.517Z,0.80
2022-10-18T23:35:11.342Z,0.90
2022-10-18T23:37:54.161Z,0.63
2022-10-18T23:40:38.323Z,0.88
2022-10-18T23:43:21.177Z,1.30
2022-10-18T23:46:04.597Z,0.90
2022-10-18T23:48:48.987Z,0.90
2022-10-18T23:51:31.856Z,0.85
2022-10-18T23:54:14.683Z,0.90
2022-10-18T23:56:58.934Z,1.10
2022-10-18T23:59:41.796Z,0.60
